sensor_id;sensor_type;location;lat;lon;timestamp;P1;durP1;ratioP1;P2;durP2;ratioP2
13704;SDS011;6924;52.122;9.952;2023-03-19T00:01:49;4.97;;;4.57;;
13704;SDS011;6924;52.122;9.952;2023-03-19T00:04:15;5.27;;;4.77;;
13704;SDS011;6924;52.122;9.952;2023-03-19T00:06:42;5.63;;;5.23;;
13704;SDS011;6924;52.122;9.952;2023-03-19T00:09:08;5.30;;;4.90;;
13704;SDS011;6924;52.122;9.952;2023-03-19T00:11:35;6.63;;;5.93;;
13704;SDS011;6924;52.122;9.952;2023-03-19T00:14:02;5.97;;;5.40;;
13704;SDS011;6924;52.122;9.952;2023-03-19T00:16:30;5.23;;;4.80;;
13704;SDS011;6924;52.122;9.952;2023-03-19T00:18:56;6.33;;;5.80;;
13704;SDS011;6924;52.122;9.952;2023-03-19T00:21:23;5.00;;;4.60;;
13704;SDS011;6924;52.122;9.952;2023-03-19T00:23:50;4.87;;;4.57;;
13704;SDS011;6924;52.122;9.952;2023-03-19T00:26:16;4.90;;;4.50;;
13704;SDS011;6924;52.122;9.952;2023-03-19T00:28:43;4.07;;;3.77;;
13704;SDS011;6924;52.122;9.952;2023-03-19T00:31:10;4.00;;;3.70;;
13704;SDS011;6924;52.122;9.952;2023-03-19T00:33:39;4.40;;;4.00;;
13704;SDS011;6924;52.122;9.952;2023-03-19T00:36:07;4.27;;;3.90;;
13704;SDS011;6924;52.122;9.952;2023-03-19T00:38:35;4.03;;;3.73;;
13704;SDS011;6924;52.122;9.952;2023-03-19T00:41:01;3.40;;;3.10;;
13704;SDS011;6924;52.122;9.952;2023-03-19T00:43:28;3.23;;;2.93;;
13704;SDS011;6924;52.122;9.952;2023-03-19T00:45:54;3.00;;;2.67;;
13704;SDS011;6924;52.122;9.952;2023-03-19T00:48:21;2.67;;;2.47;;
13704;SDS011;6924;52.122;9.952;2023-03-19T00:50:48;4.20;;;2.60;;
13704;SDS011;6924;52.122;9.952;2023-03-19T00:53:15;6.07;;;3.07;;
13704;SDS011;6924;52.122;9.952;2023-03-19T00:55:42;2.67;;;2.47;;
13704;SDS011;6924;52.122;9.952;2023-03-19T00:58:08;4.07;;;3.17;;
13704;SDS011;6924;52.122;9.952;2023-03-19T01:00:35;3.07;;;2.87;;
13704;SDS011;6924;52.122;9.952;2023-03-19T01:03:02;4.13;;;3.13;;
13704;SDS011;6924;52.122;9.952;2023-03-19T01:05:29;2.63;;;2.43;;
13704;SDS011;6924;52.122;9.952;2023-03-19T01:07:57;2.67;;;2.47;;
13704;SDS011;6924;52.122;9.952;2023-03-19T01:10:24;2.73;;;2.53;;
13704;SDS011;6924;52.122;9.952;2023-03-19T01:12:51;2.37;;;2.17;;
13704;SDS011;6924;52.122;9.952;2023-03-19T01:15:18;2.37;;;2.20;;
13704;SDS011;6924;52.122;9.952;2023-03-19T01:17:45;2.60;;;2.40;;
13704;SDS011;6924;52.122;9.952;2023-03-19T01:20:12;2.57;;;2.33;;
13704;SDS011;6924;52.122;9.952;2023-03-19T01:22:42;2.77;;;2.57;;
13704;SDS011;6924;52.122;9.952;2023-03-19T01:25:12;2.60;;;2.40;;
13704;SDS011;6924;52.122;9.952;2023-03-19T01:27:39;3.50;;;3.20;;
13704;SDS011;6924;52.122;9.952;2023-03-19T01:30:07;2.83;;;2.47;;
13704;SDS011;6924;52.122;9.952;2023-03-19T01:32:34;2.80;;;2.60;;
13704;SDS011;6924;52.122;9.952;2023-03-19T01:35:00;2.80;;;2.60;;
13704;SDS011;6924;52.122;9.952;2023-03-19T01:37:27;3.50;;;2.90;;
13704;SDS011;6924;52.122;9.952;2023-03-19T01:39:53;3.40;;;3.10;;
13704;SDS011;6924;52.122;9.952;2023-03-19T01:42:21;4.60;;;4.30;;
13704;SDS011;6924;52.122;9.952;2023-03-19T01:44:47;3.90;;;3.60;;
13704;SDS011;6924;52.122;9.952;2023-03-19T01:47:14;2.93;;;2.73;;
13704;SDS011;6924;52.122;9.952;2023-03-19T01:49:44;3.40;;;2.80;;
13704;SDS011;6924;52.122;9.952;2023-03-19T01:52:17;3.40;;;3.20;;
13704;SDS011;6924;52.122;9.952;2023-03-19T01:54:43;3.60;;;3.30;;
13704;SDS011;6924;52.122;9.952;2023-03-19T01:57:11;3.30;;;3.00;;
13704;SDS011;6924;52.122;9.952;2023-03-19T01:59:41;3.33;;;3.03;;
13704;SDS011;6924;52.122;9.952;2023-03-19T02:02:11;3.30;;;3.00;;
13704;SDS011;6924;52.122;9.952;2023-03-19T02:04:43;3.90;;;3.50;;
13704;SDS011;6924;52.122;9.952;2023-03-19T02:07:13;2.90;;;2.70;;
13704;SDS011;6924;52.122;9.952;2023-03-19T02:09:41;4.23;;;3.00;;
13704;SDS011;6924;52.122;9.952;2023-03-19T02:12:08;3.37;;;3.10;;
13704;SDS011;6924;52.122;9.952;2023-03-19T02:14:35;3.10;;;2.80;;
13704;SDS011;6924;52.122;9.952;2023-03-19T02:17:03;2.50;;;2.30;;
13704;SDS011;6924;52.122;9.952;2023-03-19T02:19:34;2.87;;;2.67;;
13704;SDS011;6924;52.122;9.952;2023-03-19T02:22:05;3.10;;;2.63;;
13704;SDS011;6924;52.122;9.952;2023-03-19T02:24:34;2.63;;;2.43;;
13704;SDS011;6924;52.122;9.952;2023-03-19T02:27:05;2.63;;;2.43;;
13704;SDS011;6924;52.122;9.952;2023-03-19T02:29:33;3.70;;;2.40;;
13704;SDS011;6924;52.122;9.952;2023-03-19T02:31:59;3.17;;;2.40;;
13704;SDS011;6924;52.122;9.952;2023-03-19T02:34:34;2.53;;;2.20;;
13704;SDS011;6924;52.122;9.952;2023-03-19T02:37:03;2.93;;;2.33;;
13704;SDS011;6924;52.122;9.952;2023-03-19T02:39:35;2.63;;;2.43;;
13704;SDS011;6924;52.122;9.952;2023-03-19T02:42:09;2.83;;;2.27;;
13704;SDS011;6924;52.122;9.952;2023-03-19T02:44:36;3.63;;;1.93;;
13704;SDS011;6924;52.122;9.952;2023-03-19T02:47:03;2.50;;;2.30;;
13704;SDS011;6924;52.122;9.952;2023-03-19T02:49:29;2.30;;;2.20;;
13704;SDS011;6924;52.122;9.952;2023-03-19T02:51:55;3.33;;;3.03;;
13704;SDS011;6924;52.122;9.952;2023-03-19T02:54:22;3.97;;;2.87;;
13704;SDS011;6924;52.122;9.952;2023-03-19T02:56:49;5.77;;;3.13;;
13704;SDS011;6924;52.122;9.952;2023-03-19T02:59:17;3.77;;;3.47;;
13704;SDS011;6924;52.122;9.952;2023-03-19T03:01:44;4.27;;;3.43;;
13704;SDS011;6924;52.122;9.952;2023-03-19T03:04:10;3.50;;;3.20;;
13704;SDS011;6924;52.122;9.952;2023-03-19T03:06:39;4.17;;;3.87;;
13704;SDS011;6924;52.122;9.952;2023-03-19T03:09:05;4.00;;;3.70;;
13704;SDS011;6924;52.122;9.952;2023-03-19T03:11:31;4.27;;;3.33;;
13704;SDS011;6924;52.122;9.952;2023-03-19T03:13:58;4.67;;;3.87;;
13704;SDS011;6924;52.122;9.952;2023-03-19T03:16:26;3.93;;;3.53;;
13704;SDS011;6924;52.122;9.952;2023-03-19T03:18:52;4.10;;;3.80;;
13704;SDS011;6924;52.122;9.952;2023-03-19T03:21:19;4.13;;;3.70;;
13704;SDS011;6924;52.122;9.952;2023-03-19T03:23:45;4.10;;;3.70;;
13704;SDS011;6924;52.122;9.952;2023-03-19T03:26:12;4.20;;;3.90;;
13704;SDS011;6924;52.122;9.952;2023-03-19T03:28:38;3.10;;;2.80;;
13704;SDS011;6924;52.122;9.952;2023-03-19T03:31:05;3.40;;;3.10;;
13704;SDS011;6924;52.122;9.952;2023-03-19T03:33:34;3.70;;;3.00;;
13704;SDS011;6924;52.122;9.952;2023-03-19T03:36:01;3.30;;;3.00;;
13704;SDS011;6924;52.122;9.952;2023-03-19T03:38:27;3.70;;;3.40;;
13704;SDS011;6924;52.122;9.952;2023-03-19T03:40:54;2.80;;;2.50;;
13704;SDS011;6924;52.122;9.952;2023-03-19T03:43:20;2.73;;;2.53;;
13704;SDS011;6924;52.122;9.952;2023-03-19T03:45:47;3.43;;;2.23;;
13704;SDS011;6924;52.122;9.952;2023-03-19T03:48:13;2.90;;;2.60;;
13704;SDS011;6924;52.122;9.952;2023-03-19T03:50:42;2.53;;;2.33;;
13704;SDS011;6924;52.122;9.952;2023-03-19T03:53:09;3.10;;;2.90;;
13704;SDS011;6924;52.122;9.952;2023-03-19T03:55:37;8.07;;;3.17;;
13704;SDS011;6924;52.122;9.952;2023-03-19T03:58:04;3.93;;;2.73;;
13704;SDS011;6924;52.122;9.952;2023-03-19T04:00:30;4.30;;;3.43;;
13704;SDS011;6924;52.122;9.952;2023-03-19T04:02:56;5.73;;;3.50;;
13704;SDS011;6924;52.122;9.952;2023-03-19T04:05:23;4.60;;;3.77;;
13704;SDS011;6924;52.122;9.952;2023-03-19T04:07:51;4.00;;;3.47;;
13704;SDS011;6924;52.122;9.952;2023-03-19T04:10:17;4.73;;;3.90;;
13704;SDS011;6924;52.122;9.952;2023-03-19T04:12:44;4.10;;;3.80;;
13704;SDS011;6924;52.122;9.952;2023-03-19T04:15:11;5.80;;;4.27;;
13704;SDS011;6924;52.122;9.952;2023-03-19T04:17:37;5.63;;;3.97;;
13704;SDS011;6924;52.122;9.952;2023-03-19T04:20:05;5.70;;;4.77;;
13704;SDS011;6924;52.122;9.952;2023-03-19T04:22:32;4.53;;;4.13;;
13704;SDS011;6924;52.122;9.952;2023-03-19T04:25:00;4.90;;;3.87;;
13704;SDS011;6924;52.122;9.952;2023-03-19T04:27:28;4.07;;;3.70;;
13704;SDS011;6924;52.122;9.952;2023-03-19T04:29:55;3.10;;;2.90;;
13704;SDS011;6924;52.122;9.952;2023-03-19T04:32:21;3.43;;;2.63;;
13704;SDS011;6924;52.122;9.952;2023-03-19T04:34:49;2.37;;;2.23;;
13704;SDS011;6924;52.122;9.952;2023-03-19T04:37:15;3.30;;;2.70;;
13704;SDS011;6924;52.122;9.952;2023-03-19T04:39:42;5.30;;;3.13;;
13704;SDS011;6924;52.122;9.952;2023-03-19T04:42:10;2.67;;;2.47;;
13704;SDS011;6924;52.122;9.952;2023-03-19T04:44:37;2.87;;;2.67;;
13704;SDS011;6924;52.122;9.952;2023-03-19T04:47:03;3.10;;;2.80;;
13704;SDS011;6924;52.122;9.952;2023-03-19T04:49:30;7.30;;;3.17;;
13704;SDS011;6924;52.122;9.952;2023-03-19T04:51:56;4.47;;;4.13;;
13704;SDS011;6924;52.122;9.952;2023-03-19T04:54:23;3.40;;;3.10;;
13704;SDS011;6924;52.122;9.952;2023-03-19T04:56:52;3.23;;;3.03;;
13704;SDS011;6924;52.122;9.952;2023-03-19T04:59:20;3.53;;;3.30;;
13704;SDS011;6924;52.122;9.952;2023-03-19T05:01:47;4.17;;;3.87;;
13704;SDS011;6924;52.122;9.952;2023-03-19T05:04:13;4.60;;;3.67;;
13704;SDS011;6924;52.122;9.952;2023-03-19T05:06:39;5.50;;;4.17;;
13704;SDS011;6924;52.122;9.952;2023-03-19T05:09:06;4.97;;;3.80;;
13704;SDS011;6924;52.122;9.952;2023-03-19T05:11:33;4.20;;;3.80;;
13704;SDS011;6924;52.122;9.952;2023-03-19T05:14:00;6.23;;;4.87;;
13704;SDS011;6924;52.122;9.952;2023-03-19T05:16:27;4.57;;;4.17;;
13704;SDS011;6924;52.122;9.952;2023-03-19T05:18:54;5.63;;;4.77;;
13704;SDS011;6924;52.122;9.952;2023-03-19T05:21:21;3.97;;;3.37;;
13704;SDS011;6924;52.122;9.952;2023-03-19T05:23:47;3.93;;;3.57;;
13704;SDS011;6924;52.122;9.952;2023-03-19T05:26:16;9.50;;;4.23;;
13704;SDS011;6924;52.122;9.952;2023-03-19T05:28:42;4.40;;;4.00;;
13704;SDS011;6924;52.122;9.952;2023-03-19T05:31:09;4.20;;;3.90;;
13704;SDS011;6924;52.122;9.952;2023-03-19T05:33:37;4.83;;;4.20;;
13704;SDS011;6924;52.122;9.952;2023-03-19T05:36:03;5.33;;;4.17;;
13704;SDS011;6924;52.122;9.952;2023-03-19T05:38:31;4.63;;;4.17;;
13704;SDS011;6924;52.122;9.952;2023-03-19T05:41:02;4.90;;;4.50;;
13704;SDS011;6924;52.122;9.952;2023-03-19T05:43:29;5.13;;;4.03;;
13704;SDS011;6924;52.122;9.952;2023-03-19T05:45:55;3.90;;;3.60;;
13704;SDS011;6924;52.122;9.952;2023-03-19T05:48:22;5.70;;;4.27;;
13704;SDS011;6924;52.122;9.952;2023-03-19T05:50:50;4.67;;;4.27;;
13704;SDS011;6924;52.122;9.952;2023-03-19T05:53:16;4.40;;;4.00;;
13704;SDS011;6924;52.122;9.952;2023-03-19T05:55:43;4.20;;;3.80;;
13704;SDS011;6924;52.122;9.952;2023-03-19T05:58:09;4.93;;;4.43;;
13704;SDS011;6924;52.122;9.952;2023-03-19T06:00:36;4.37;;;3.93;;
13704;SDS011;6924;52.122;9.952;2023-03-19T06:03:02;4.20;;;3.90;;
13704;SDS011;6924;52.122;9.952;2023-03-19T06:05:29;5.33;;;4.40;;
13704;SDS011;6924;52.122;9.952;2023-03-19T06:07:57;4.77;;;4.37;;
13704;SDS011;6924;52.122;9.952;2023-03-19T06:10:23;6.10;;;5.13;;
13704;SDS011;6924;52.122;9.952;2023-03-19T06:12:51;5.17;;;4.77;;
13704;SDS011;6924;52.122;9.952;2023-03-19T06:15:17;5.20;;;4.70;;
13704;SDS011;6924;52.122;9.952;2023-03-19T06:17:44;5.40;;;4.90;;
13704;SDS011;6924;52.122;9.952;2023-03-19T06:20:10;5.13;;;4.73;;
13704;SDS011;6924;52.122;9.952;2023-03-19T06:22:38;7.77;;;4.90;;
13704;SDS011;6924;52.122;9.952;2023-03-19T06:25:06;8.67;;;4.43;;
13704;SDS011;6924;52.122;9.952;2023-03-19T06:27:33;5.93;;;5.30;;
13704;SDS011;6924;52.122;9.952;2023-03-19T06:29:59;10.13;;;5.77;;
13704;SDS011;6924;52.122;9.952;2023-03-19T06:32:26;5.53;;;5.03;;
13704;SDS011;6924;52.122;9.952;2023-03-19T06:34:52;6.27;;;5.70;;
13704;SDS011;6924;52.122;9.952;2023-03-19T06:37:19;5.67;;;5.13;;
13704;SDS011;6924;52.122;9.952;2023-03-19T06:39:45;5.47;;;5.03;;
13704;SDS011;6924;52.122;9.952;2023-03-19T06:42:14;6.20;;;5.40;;
13704;SDS011;6924;52.122;9.952;2023-03-19T06:44:41;5.00;;;4.67;;
13704;SDS011;6924;52.122;9.952;2023-03-19T06:47:07;6.20;;;5.70;;
13704;SDS011;6924;52.122;9.952;2023-03-19T06:49:34;5.97;;;5.47;;
13704;SDS011;6924;52.122;9.952;2023-03-19T06:52:00;6.17;;;4.80;;
13704;SDS011;6924;52.122;9.952;2023-03-19T06:54:26;5.30;;;4.80;;
13704;SDS011;6924;52.122;9.952;2023-03-19T06:56:53;6.63;;;5.83;;
13704;SDS011;6924;52.122;9.952;2023-03-19T06:59:21;5.37;;;4.87;;
13704;SDS011;6924;52.122;9.952;2023-03-19T07:01:47;4.90;;;4.40;;
13704;SDS011;6924;52.122;9.952;2023-03-19T07:04:13;5.13;;;4.63;;
13704;SDS011;6924;52.122;9.952;2023-03-19T07:06:40;5.10;;;4.70;;
13704;SDS011;6924;52.122;9.952;2023-03-19T07:09:06;6.87;;;5.13;;
13704;SDS011;6924;52.122;9.952;2023-03-19T07:11:33;5.20;;;4.70;;
13704;SDS011;6924;52.122;9.952;2023-03-19T07:13:59;8.90;;;5.13;;
13704;SDS011;6924;52.122;9.952;2023-03-19T07:16:27;4.63;;;4.23;;
13704;SDS011;6924;52.122;9.952;2023-03-19T07:18:53;5.03;;;4.50;;
13704;SDS011;6924;52.122;9.952;2023-03-19T07:21:20;5.87;;;4.83;;
13704;SDS011;6924;52.122;9.952;2023-03-19T07:23:47;4.63;;;4.23;;
13704;SDS011;6924;52.122;9.952;2023-03-19T07:26:15;4.17;;;3.83;;
13704;SDS011;6924;52.122;9.952;2023-03-19T07:28:42;5.37;;;3.67;;
13704;SDS011;6924;52.122;9.952;2023-03-19T07:31:08;4.73;;;4.30;;
13704;SDS011;6924;52.122;9.952;2023-03-19T07:33:36;5.10;;;4.70;;
13704;SDS011;6924;52.122;9.952;2023-03-19T07:36:03;4.07;;;3.73;;
13704;SDS011;6924;52.122;9.952;2023-03-19T07:38:30;4.97;;;3.10;;
13704;SDS011;6924;52.122;9.952;2023-03-19T07:40:56;4.17;;;3.13;;
13704;SDS011;6924;52.122;9.952;2023-03-19T07:43:22;7.87;;;3.77;;
13704;SDS011;6924;52.122;9.952;2023-03-19T07:45:49;4.60;;;3.43;;
13704;SDS011;6924;52.122;9.952;2023-03-19T07:48:16;4.00;;;3.63;;
13704;SDS011;6924;52.122;9.952;2023-03-19T07:50:44;4.93;;;4.57;;
13704;SDS011;6924;52.122;9.952;2023-03-19T07:53:10;4.50;;;4.10;;
13704;SDS011;6924;52.122;9.952;2023-03-19T07:55:37;7.20;;;5.50;;
13704;SDS011;6924;52.122;9.952;2023-03-19T07:58:03;7.77;;;7.10;;
13704;SDS011;6924;52.122;9.952;2023-03-19T08:00:29;6.40;;;5.90;;
13704;SDS011;6924;52.122;9.952;2023-03-19T08:02:56;5.07;;;4.20;;
13704;SDS011;6924;52.122;9.952;2023-03-19T08:05:22;6.77;;;4.07;;
13704;SDS011;6924;52.122;9.952;2023-03-19T08:07:50;4.90;;;3.40;;
13704;SDS011;6924;52.122;9.952;2023-03-19T08:10:17;4.03;;;3.63;;
13704;SDS011;6924;52.122;9.952;2023-03-19T08:12:43;3.40;;;3.10;;
13704;SDS011;6924;52.122;9.952;2023-03-19T08:15:10;4.73;;;2.97;;
13704;SDS011;6924;52.122;9.952;2023-03-19T08:17:36;4.17;;;3.07;;
13704;SDS011;6924;52.122;9.952;2023-03-19T08:20:04;5.20;;;3.90;;
13704;SDS011;6924;52.122;9.952;2023-03-19T08:22:32;8.27;;;3.30;;
13704;SDS011;6924;52.122;9.952;2023-03-19T08:25:00;4.43;;;3.43;;
13704;SDS011;6924;52.122;9.952;2023-03-19T08:27:27;3.60;;;3.30;;
13704;SDS011;6924;52.122;9.952;2023-03-19T08:29:54;4.07;;;2.63;;
13704;SDS011;6924;52.122;9.952;2023-03-19T08:32:21;2.60;;;2.40;;
13704;SDS011;6924;52.122;9.952;2023-03-19T08:34:47;2.40;;;2.20;;
13704;SDS011;6924;52.122;9.952;2023-03-19T08:37:14;2.27;;;2.07;;
13704;SDS011;6924;52.122;9.952;2023-03-19T08:39:40;2.43;;;1.67;;
13704;SDS011;6924;52.122;9.952;2023-03-19T08:42:08;2.47;;;1.20;;
13704;SDS011;6924;52.122;9.952;2023-03-19T08:44:35;1.23;;;1.13;;
13704;SDS011;6924;52.122;9.952;2023-03-19T08:47:02;1.37;;;1.13;;
13704;SDS011;6924;52.122;9.952;2023-03-19T08:49:28;1.10;;;0.90;;
13704;SDS011;6924;52.122;9.952;2023-03-19T08:51:55;1.73;;;1.07;;
13704;SDS011;6924;52.122;9.952;2023-03-19T08:54:21;1.90;;;1.20;;
13704;SDS011;6924;52.122;9.952;2023-03-19T08:56:47;0.83;;;0.83;;
13704;SDS011;6924;52.122;9.952;2023-03-19T08:59:16;2.00;;;1.40;;
13704;SDS011;6924;52.122;9.952;2023-03-19T09:01:43;1.83;;;1.00;;
13704;SDS011;6924;52.122;9.952;2023-03-19T09:04:09;1.17;;;1.07;;
13704;SDS011;6924;52.122;9.952;2023-03-19T09:06:35;1.30;;;1.20;;
13704;SDS011;6924;52.122;9.952;2023-03-19T09:09:02;1.40;;;1.30;;
13704;SDS011;6924;52.122;9.952;2023-03-19T09:11:30;1.60;;;1.30;;
13704;SDS011;6924;52.122;9.952;2023-03-19T09:13:56;1.20;;;1.10;;
13704;SDS011;6924;52.122;9.952;2023-03-19T09:16:24;2.20;;;1.20;;
13704;SDS011;6924;52.122;9.952;2023-03-19T09:18:51;2.33;;;1.27;;
13704;SDS011;6924;52.122;9.952;2023-03-19T09:21:17;2.43;;;1.60;;
13704;SDS011;6924;52.122;9.952;2023-03-19T09:23:43;1.10;;;1.00;;
13704;SDS011;6924;52.122;9.952;2023-03-19T09:26:10;1.20;;;1.17;;
13704;SDS011;6924;52.122;9.952;2023-03-19T09:28:36;1.10;;;1.10;;
13704;SDS011;6924;52.122;9.952;2023-03-19T09:31:03;2.20;;;1.43;;
13704;SDS011;6924;52.122;9.952;2023-03-19T09:33:32;1.23;;;1.13;;
13704;SDS011;6924;52.122;9.952;2023-03-19T09:35:59;2.37;;;1.07;;
13704;SDS011;6924;52.122;9.952;2023-03-19T09:38:25;2.17;;;1.13;;
13704;SDS011;6924;52.122;9.952;2023-03-19T09:41:02;3.20;;;1.50;;
13704;SDS011;6924;52.122;9.952;2023-03-19T09:43:38;1.33;;;1.20;;
13704;SDS011;6924;52.122;9.952;2023-03-19T09:46:17;1.73;;;1.50;;
13704;SDS011;6924;52.122;9.952;2023-03-19T09:48:48;4.73;;;2.30;;
13704;SDS011;6924;52.122;9.952;2023-03-19T09:51:20;1.43;;;1.10;;
13704;SDS011;6924;52.122;9.952;2023-03-19T09:53:55;3.63;;;1.33;;
13704;SDS011;6924;52.122;9.952;2023-03-19T09:56:25;1.57;;;1.47;;
13704;SDS011;6924;52.122;9.952;2023-03-19T09:58:52;3.70;;;1.50;;
13704;SDS011;6924;52.122;9.952;2023-03-19T10:01:25;1.10;;;1.00;;
13704;SDS011;6924;52.122;9.952;2023-03-19T10:03:59;1.27;;;0.90;;
13704;SDS011;6924;52.122;9.952;2023-03-19T10:06:43;1.20;;;1.10;;
13704;SDS011;6924;52.122;9.952;2023-03-19T10:09:25;2.73;;;1.10;;
13704;SDS011;6924;52.122;9.952;2023-03-19T10:12:02;2.37;;;1.07;;
13704;SDS011;6924;52.122;9.952;2023-03-19T10:14:45;2.07;;;1.23;;
13704;SDS011;6924;52.122;9.952;2023-03-19T10:17:21;3.77;;;1.40;;
13704;SDS011;6924;52.122;9.952;2023-03-19T10:19:54;2.50;;;1.20;;
13704;SDS011;6924;52.122;9.952;2023-03-19T10:22:24;2.30;;;1.30;;
13704;SDS011;6924;52.122;9.952;2023-03-19T10:24:57;2.00;;;1.20;;
13704;SDS011;6924;52.122;9.952;2023-03-19T10:27:25;1.40;;;1.30;;
13704;SDS011;6924;52.122;9.952;2023-03-19T10:29:53;1.63;;;1.40;;
13704;SDS011;6924;52.122;9.952;2023-03-19T10:32:20;1.70;;;1.60;;
13704;SDS011;6924;52.122;9.952;2023-03-19T10:35:00;1.43;;;1.33;;
13704;SDS011;6924;52.122;9.952;2023-03-19T10:37:33;3.47;;;1.83;;
13704;SDS011;6924;52.122;9.952;2023-03-19T10:40:00;1.93;;;1.33;;
13704;SDS011;6924;52.122;9.952;2023-03-19T10:42:34;1.20;;;1.10;;
13704;SDS011;6924;52.122;9.952;2023-03-19T10:45:13;1.30;;;1.20;;
13704;SDS011;6924;52.122;9.952;2023-03-19T10:47:46;2.23;;;0.90;;
13704;SDS011;6924;52.122;9.952;2023-03-19T10:50:16;2.00;;;1.00;;
13704;SDS011;6924;52.122;9.952;2023-03-19T10:52:44;1.30;;;0.93;;
13704;SDS011;6924;52.122;9.952;2023-03-19T10:55:16;2.10;;;1.10;;
13704;SDS011;6924;52.122;9.952;2023-03-19T10:57:44;1.80;;;1.67;;
13704;SDS011;6924;52.122;9.952;2023-03-19T11:00:15;1.60;;;1.10;;
13704;SDS011;6924;52.122;9.952;2023-03-19T11:02:46;1.10;;;1.00;;
13704;SDS011;6924;52.122;9.952;2023-03-19T11:05:21;2.17;;;1.17;;
13704;SDS011;6924;52.122;9.952;2023-03-19T11:07:50;1.20;;;1.10;;
13704;SDS011;6924;52.122;9.952;2023-03-19T11:10:21;1.20;;;1.10;;
13704;SDS011;6924;52.122;9.952;2023-03-19T11:12:51;2.13;;;0.93;;
13704;SDS011;6924;52.122;9.952;2023-03-19T11:15:21;2.43;;;1.30;;
13704;SDS011;6924;52.122;9.952;2023-03-19T11:17:49;2.10;;;1.20;;
13704;SDS011;6924;52.122;9.952;2023-03-19T11:20:25;3.60;;;1.50;;
13704;SDS011;6924;52.122;9.952;2023-03-19T11:22:54;1.13;;;1.03;;
13704;SDS011;6924;52.122;9.952;2023-03-19T11:25:26;1.23;;;0.80;;
13704;SDS011;6924;52.122;9.952;2023-03-19T11:27:58;1.80;;;1.07;;
13704;SDS011;6924;52.122;9.952;2023-03-19T11:30:27;2.03;;;1.20;;
13704;SDS011;6924;52.122;9.952;2023-03-19T11:35:54;1.70;;;0.70;;
13704;SDS011;6924;52.122;9.952;2023-03-19T11:38:28;2.40;;;1.53;;
13704;SDS011;6924;52.122;9.952;2023-03-19T11:41:04;1.40;;;1.10;;
13704;SDS011;6924;52.122;9.952;2023-03-19T11:43:43;0.90;;;0.87;;
13704;SDS011;6924;52.122;9.952;2023-03-19T11:46:19;0.83;;;0.83;;
13704;SDS011;6924;52.122;9.952;2023-03-19T11:49:02;2.63;;;0.80;;
13704;SDS011;6924;52.122;9.952;2023-03-19T11:51:40;1.17;;;1.13;;
13704;SDS011;6924;52.122;9.952;2023-03-19T11:54:14;1.33;;;0.90;;
13704;SDS011;6924;52.122;9.952;2023-03-19T11:56:47;1.63;;;0.87;;
13704;SDS011;6924;52.122;9.952;2023-03-19T11:59:27;0.90;;;0.87;;
13704;SDS011;6924;52.122;9.952;2023-03-19T12:05:02;1.70;;;1.30;;
13704;SDS011;6924;52.122;9.952;2023-03-19T12:07:45;3.40;;;1.50;;
13704;SDS011;6924;52.122;9.952;2023-03-19T12:10:27;1.60;;;1.50;;
13704;SDS011;6924;52.122;9.952;2023-03-19T12:13:03;2.20;;;1.00;;
13704;SDS011;6924;52.122;9.952;2023-03-19T12:15:40;1.77;;;1.03;;
13704;SDS011;6924;52.122;9.952;2023-03-19T12:18:19;1.60;;;1.50;;
13704;SDS011;6924;52.122;9.952;2023-03-19T12:20:55;2.77;;;1.20;;
13704;SDS011;6924;52.122;9.952;2023-03-19T12:23:29;1.50;;;1.23;;
13704;SDS011;6924;52.122;9.952;2023-03-19T12:26:05;1.63;;;1.40;;
13704;SDS011;6924;52.122;9.952;2023-03-19T12:28:35;1.43;;;1.33;;
13704;SDS011;6924;52.122;9.952;2023-03-19T12:31:23;1.50;;;1.30;;
13704;SDS011;6924;52.122;9.952;2023-03-19T12:34:00;2.30;;;1.23;;
13704;SDS011;6924;52.122;9.952;2023-03-19T12:36:36;1.77;;;1.53;;
13704;SDS011;6924;52.122;9.952;2023-03-19T12:39:10;1.87;;;1.53;;
13704;SDS011;6924;52.122;9.952;2023-03-19T12:41:41;2.80;;;1.83;;
13704;SDS011;6924;52.122;9.952;2023-03-19T12:44:10;1.63;;;1.40;;
13704;SDS011;6924;52.122;9.952;2023-03-19T12:46:41;3.47;;;1.33;;
13704;SDS011;6924;52.122;9.952;2023-03-19T12:49:12;0.83;;;0.60;;
13704;SDS011;6924;52.122;9.952;2023-03-19T12:51:43;1.43;;;0.67;;
13704;SDS011;6924;52.122;9.952;2023-03-19T12:54:17;2.10;;;0.80;;
13704;SDS011;6924;52.122;9.952;2023-03-19T12:56:46;1.27;;;0.50;;
13704;SDS011;6924;52.122;9.952;2023-03-19T12:59:20;1.23;;;0.50;;
13704;SDS011;6924;52.122;9.952;2023-03-19T13:01:56;1.03;;;0.60;;
13704;SDS011;6924;52.122;9.952;2023-03-19T13:04:27;0.57;;;0.57;;
13704;SDS011;6924;52.122;9.952;2023-03-19T13:06:57;0.93;;;0.80;;
13704;SDS011;6924;52.122;9.952;2023-03-19T13:09:31;0.80;;;0.70;;
13704;SDS011;6924;52.122;9.952;2023-03-19T13:12:02;1.00;;;0.90;;
13704;SDS011;6924;52.122;9.952;2023-03-19T13:14:33;1.73;;;0.77;;
13704;SDS011;6924;52.122;9.952;2023-03-19T13:17:10;1.20;;;0.90;;
13704;SDS011;6924;52.122;9.952;2023-03-19T13:19:43;1.07;;;0.87;;
13704;SDS011;6924;52.122;9.952;2023-03-19T13:22:13;0.63;;;0.63;;
13704;SDS011;6924;52.122;9.952;2023-03-19T13:24:45;1.13;;;0.80;;
13704;SDS011;6924;52.122;9.952;2023-03-19T13:27:14;1.73;;;0.90;;
13704;SDS011;6924;52.122;9.952;2023-03-19T13:29:55;0.80;;;0.60;;
13704;SDS011;6924;52.122;9.952;2023-03-19T13:32:29;1.53;;;0.93;;
13704;SDS011;6924;52.122;9.952;2023-03-19T13:35:12;1.93;;;0.73;;
13704;SDS011;6924;52.122;9.952;2023-03-19T13:37:50;0.67;;;0.47;;
13704;SDS011;6924;52.122;9.952;2023-03-19T13:40:38;0.60;;;0.47;;
13704;SDS011;6924;52.122;9.952;2023-03-19T13:43:19;1.53;;;0.60;;
13704;SDS011;6924;52.122;9.952;2023-03-19T13:45:50;0.50;;;0.50;;
13704;SDS011;6924;52.122;9.952;2023-03-19T13:48:33;3.70;;;1.20;;
13704;SDS011;6924;52.122;9.952;2023-03-19T13:51:03;1.40;;;1.20;;
13704;SDS011;6924;52.122;9.952;2023-03-19T13:53:51;0.50;;;0.47;;
13704;SDS011;6924;52.122;9.952;2023-03-19T13:56:20;0.50;;;0.50;;
13704;SDS011;6924;52.122;9.952;2023-03-19T13:58:48;0.57;;;0.57;;
13704;SDS011;6924;52.122;9.952;2023-03-19T14:01:37;0.60;;;0.60;;
13704;SDS011;6924;52.122;9.952;2023-03-19T14:04:05;0.70;;;0.50;;
13704;SDS011;6924;52.122;9.952;2023-03-19T14:06:41;0.70;;;0.70;;
13704;SDS011;6924;52.122;9.952;2023-03-19T14:12:08;0.80;;;0.50;;
13704;SDS011;6924;52.122;9.952;2023-03-19T14:14:38;1.40;;;0.90;;
13704;SDS011;6924;52.122;9.952;2023-03-19T14:17:10;0.30;;;0.30;;
13704;SDS011;6924;52.122;9.952;2023-03-19T14:19:39;0.87;;;0.50;;
13704;SDS011;6924;52.122;9.952;2023-03-19T14:22:07;0.40;;;0.40;;
13704;SDS011;6924;52.122;9.952;2023-03-19T14:24:36;0.70;;;0.70;;
13704;SDS011;6924;52.122;9.952;2023-03-19T14:27:13;0.50;;;0.40;;
13704;SDS011;6924;52.122;9.952;2023-03-19T14:29:42;0.67;;;0.67;;
13704;SDS011;6924;52.122;9.952;2023-03-19T14:32:12;0.60;;;0.60;;
13704;SDS011;6924;52.122;9.952;2023-03-19T14:34:43;1.93;;;0.50;;
13704;SDS011;6924;52.122;9.952;2023-03-19T14:37:14;0.93;;;0.50;;
13704;SDS011;6924;52.122;9.952;2023-03-19T14:39:48;0.40;;;0.40;;
13704;SDS011;6924;52.122;9.952;2023-03-19T14:42:21;0.70;;;0.50;;
13704;SDS011;6924;52.122;9.952;2023-03-19T14:48:03;0.60;;;0.50;;
13704;SDS011;6924;52.122;9.952;2023-03-19T14:50:49;0.80;;;0.40;;
13704;SDS011;6924;52.122;9.952;2023-03-19T14:53:23;1.47;;;0.70;;
13704;SDS011;6924;52.122;9.952;2023-03-19T14:55:56;0.50;;;0.40;;
13704;SDS011;6924;52.122;9.952;2023-03-19T14:58:35;1.40;;;0.50;;
13704;SDS011;6924;52.122;9.952;2023-03-19T15:01:04;0.97;;;0.60;;
13704;SDS011;6924;52.122;9.952;2023-03-19T15:03:32;0.43;;;0.43;;
13704;SDS011;6924;52.122;9.952;2023-03-19T15:06:02;0.63;;;0.50;;
13704;SDS011;6924;52.122;9.952;2023-03-19T15:08:31;2.63;;;0.60;;
13704;SDS011;6924;52.122;9.952;2023-03-19T15:11:05;1.33;;;0.80;;
13704;SDS011;6924;52.122;9.952;2023-03-19T15:13:52;0.70;;;0.70;;
13704;SDS011;6924;52.122;9.952;2023-03-19T15:16:30;1.90;;;0.80;;
13704;SDS011;6924;52.122;9.952;2023-03-19T15:19:05;2.67;;;1.10;;
13704;SDS011;6924;52.122;9.952;2023-03-19T15:21:34;1.30;;;0.80;;
13704;SDS011;6924;52.122;9.952;2023-03-19T15:24:01;1.33;;;1.13;;
13704;SDS011;6924;52.122;9.952;2023-03-19T15:26:29;1.70;;;1.20;;